Surface Preassure
0:00 UTC
12:00 UTC (Click for larger versions)
Andrewsfield Outlook

Current time:


  07:26:39am (GMT)      07:26:39am (UTC)


Headline: Sunny spells and blustery showers, with gales on the hills.

Today: There will be a mixture of sunshine and blustery showers for many. The showers will be heavy, possibly thundery at times, especially on the hills. Windy, with gales over the Pennines and to the lee of higher ground. Feeling cool. Maximum Temperature 18C.

Tonight: Further showers and clear spells overnight, especially over the hills. Still on the windy side, although less windy than during Sunday. A cooler night than Saturday night. Minimum Temperature 11C.

Monday: A few showers are likely during the morning, but generally fine and dry, with variable cloud and sunny spells. Less windy than on Sunday, but still breezy and feeling cool. Maximum Temperature 18C.

Outlook for Tuesday to Thursday: Dry and bright start on Tuesday, before cloud and rain arrives from the west later. Rain clearing to leave drier and brighter conditions on Wednesday. Further rain likely on Thursday.

Nearby METAR/TAF

Stansted (EGSS)


Current conditions: IFR

METAR: EGSS 050650Z AUTO 24010KT 9999 -RA BKN008 OVC016 16/15 Q1008

TAF: TAF AMD EGSS 050614Z 0506/0612 23015KT 5000 -RADZ BKN006 BECMG 0506/0508 26022G33KT 9999 NSW SCT025 TEMPO 0520/0523 25015KT BECMG 0523/0602 25012KT TEMPO 0607/0612 28017G27KT PROB30 TEMPO 0610/0612 7000 SHRA

Southend (EGMC)


Current conditions: MVFR

METAR: EGMC 050720Z 24017KT 9999 VCSH BKN019 18/14 Q1008

TAF: TAF EGMC 050209Z 0503/0512 23017G27KT 9999 BKN016 PROB40 TEMPO 0503/0508 7000 -RADZ BKN010 BECMG 0506/0509 26020G30KT FEW030

RAF Wattisham (EGUW)


Current conditions: IFR

METAR: EGUW 050650Z AUTO 25016KT 2600 HZ BKN011/// SCT037/// 17/15 Q1007 RERA

TAF: